Roslindale, Massachusetts
Current Conditions -  °F | °C
As of 10:53 AM on Sunday 25 Jan 2015 (Local Time) from KOWD Reporting Station
Broken Clouds Broken Clouds  
Wind Chill: 28°   Ceiling: 4300
Heat Index: 37°   Visibility: 10mi
Dew Point: 25°   Wind: 15mph
Humidity: 62%   Direction: 270°W
Pressure: 29.61"   Gusts: 22mph
Location:  42.28°N, 71.13°W
Report Text: KOWD 251553Z 27013G19KT 10SM BKN043 03/M04 A2961 RMK AO2 SLP027 T00281039
Loading
Personal Weather Stations






























Interactive Weather Map New forecast layout! Learn more

10-Day Weather Forecast

Advertisements
Track Severe Weather on mobile